sensor_id;sensor_type;location;lat;lon;timestamp;P1;durP1;ratioP1;P2;durP2;ratioP2
15295;SDS011;7749;49.964;7.890;2024-01-30T00:02:00;35.37;;;31.47;;
15295;SDS011;7749;49.964;7.890;2024-01-30T00:04:27;35.07;;;31.33;;
15295;SDS011;7749;49.964;7.890;2024-01-30T00:06:54;34.57;;;31.20;;
15295;SDS011;7749;49.964;7.890;2024-01-30T00:09:22;35.77;;;31.60;;
15295;SDS011;7749;49.964;7.890;2024-01-30T00:11:49;34.77;;;30.40;;
15295;SDS011;7749;49.964;7.890;2024-01-30T00:14:17;37.23;;;33.33;;
15295;SDS011;7749;49.964;7.890;2024-01-30T00:16:45;36.50;;;33.00;;
15295;SDS011;7749;49.964;7.890;2024-01-30T00:19:12;36.23;;;32.30;;
15295;SDS011;7749;49.964;7.890;2024-01-30T00:21:40;34.03;;;30.47;;
15295;SDS011;7749;49.964;7.890;2024-01-30T00:24:08;35.17;;;31.87;;
15295;SDS011;7749;49.964;7.890;2024-01-30T00:26:35;35.60;;;32.13;;
15295;SDS011;7749;49.964;7.890;2024-01-30T00:29:03;34.10;;;30.57;;
15295;SDS011;7749;49.964;7.890;2024-01-30T00:31:30;33.47;;;30.10;;
15295;SDS011;7749;49.964;7.890;2024-01-30T00:33:58;35.10;;;31.70;;
15295;SDS011;7749;49.964;7.890;2024-01-30T00:36:25;36.27;;;32.53;;
15295;SDS011;7749;49.964;7.890;2024-01-30T00:38:53;33.77;;;30.07;;
15295;SDS011;7749;49.964;7.890;2024-01-30T00:41:20;34.20;;;30.47;;
15295;SDS011;7749;49.964;7.890;2024-01-30T00:43:47;35.87;;;32.00;;
15295;SDS011;7749;49.964;7.890;2024-01-30T00:46:15;37.67;;;32.07;;
15295;SDS011;7749;49.964;7.890;2024-01-30T00:48:42;38.53;;;34.33;;
15295;SDS011;7749;49.964;7.890;2024-01-30T00:51:10;40.23;;;33.57;;
15295;SDS011;7749;49.964;7.890;2024-01-30T00:53:38;36.57;;;32.50;;
15295;SDS011;7749;49.964;7.890;2024-01-30T00:56:05;41.63;;;35.07;;
15295;SDS011;7749;49.964;7.890;2024-01-30T00:58:33;38.10;;;34.07;;
15295;SDS011;7749;49.964;7.890;2024-01-30T01:01:01;36.60;;;33.00;;
15295;SDS011;7749;49.964;7.890;2024-01-30T01:03:29;38.53;;;34.63;;
15295;SDS011;7749;49.964;7.890;2024-01-30T01:05:56;37.80;;;33.97;;
15295;SDS011;7749;49.964;7.890;2024-01-30T01:08:24;38.67;;;34.13;;
15295;SDS011;7749;49.964;7.890;2024-01-30T01:10:51;39.20;;;35.27;;
15295;SDS011;7749;49.964;7.890;2024-01-30T01:13:19;37.90;;;33.97;;
15295;SDS011;7749;49.964;7.890;2024-01-30T01:15:47;39.40;;;35.30;;
15295;SDS011;7749;49.964;7.890;2024-01-30T01:18:14;36.60;;;32.93;;
15295;SDS011;7749;49.964;7.890;2024-01-30T01:20:41;38.07;;;34.27;;
15295;SDS011;7749;49.964;7.890;2024-01-30T01:23:09;35.23;;;31.80;;
15295;SDS011;7749;49.964;7.890;2024-01-30T01:25:36;35.33;;;31.90;;
15295;SDS011;7749;49.964;7.890;2024-01-30T01:28:03;34.20;;;30.87;;
15295;SDS011;7749;49.964;7.890;2024-01-30T01:30:31;35.43;;;32.13;;
15295;SDS011;7749;49.964;7.890;2024-01-30T01:32:58;36.43;;;32.87;;
15295;SDS011;7749;49.964;7.890;2024-01-30T01:35:29;32.70;;;29.20;;
15295;SDS011;7749;49.964;7.890;2024-01-30T01:37:56;35.27;;;31.77;;
15295;SDS011;7749;49.964;7.890;2024-01-30T01:40:26;34.83;;;31.03;;
15295;SDS011;7749;49.964;7.890;2024-01-30T01:42:55;34.30;;;29.60;;
15295;SDS011;7749;49.964;7.890;2024-01-30T01:45:23;50.73;;;40.33;;
15295;SDS011;7749;49.964;7.890;2024-01-30T01:47:50;36.47;;;32.57;;
15295;SDS011;7749;49.964;7.890;2024-01-30T01:50:19;37.17;;;33.47;;
15295;SDS011;7749;49.964;7.890;2024-01-30T01:52:48;37.70;;;33.87;;
15295;SDS011;7749;49.964;7.890;2024-01-30T01:55:17;38.67;;;34.97;;
15295;SDS011;7749;49.964;7.890;2024-01-30T01:57:49;38.23;;;34.37;;
15295;SDS011;7749;49.964;7.890;2024-01-30T02:00:16;34.60;;;31.10;;
15295;SDS011;7749;49.964;7.890;2024-01-30T02:02:46;37.77;;;34.07;;
15295;SDS011;7749;49.964;7.890;2024-01-30T02:05:14;39.60;;;35.70;;
15295;SDS011;7749;49.964;7.890;2024-01-30T02:07:43;37.13;;;33.33;;
15295;SDS011;7749;49.964;7.890;2024-01-30T02:10:11;36.53;;;32.90;;
15295;SDS011;7749;49.964;7.890;2024-01-30T02:12:39;38.47;;;34.63;;
15295;SDS011;7749;49.964;7.890;2024-01-30T02:15:07;37.77;;;34.13;;
15295;SDS011;7749;49.964;7.890;2024-01-30T02:17:34;36.20;;;32.77;;
15295;SDS011;7749;49.964;7.890;2024-01-30T02:20:02;33.37;;;30.07;;
15295;SDS011;7749;49.964;7.890;2024-01-30T02:22:31;33.27;;;29.77;;
15295;SDS011;7749;49.964;7.890;2024-01-30T02:25:01;35.80;;;32.13;;
15295;SDS011;7749;49.964;7.890;2024-01-30T02:27:29;34.93;;;31.27;;
15295;SDS011;7749;49.964;7.890;2024-01-30T02:29:56;33.57;;;29.97;;
15295;SDS011;7749;49.964;7.890;2024-01-30T02:32:23;34.30;;;30.60;;
15295;SDS011;7749;49.964;7.890;2024-01-30T02:34:51;33.77;;;30.17;;
15295;SDS011;7749;49.964;7.890;2024-01-30T02:37:18;34.93;;;31.47;;
15295;SDS011;7749;49.964;7.890;2024-01-30T02:39:46;34.63;;;30.97;;
15295;SDS011;7749;49.964;7.890;2024-01-30T02:42:13;34.43;;;30.27;;
15295;SDS011;7749;49.964;7.890;2024-01-30T02:44:40;33.27;;;29.27;;
15295;SDS011;7749;49.964;7.890;2024-01-30T02:47:08;34.33;;;31.00;;
15295;SDS011;7749;49.964;7.890;2024-01-30T02:49:35;35.17;;;31.63;;
15295;SDS011;7749;49.964;7.890;2024-01-30T02:52:03;34.07;;;30.47;;
15295;SDS011;7749;49.964;7.890;2024-01-30T02:54:30;35.17;;;31.53;;
15295;SDS011;7749;49.964;7.890;2024-01-30T02:56:58;36.67;;;32.97;;
15295;SDS011;7749;49.964;7.890;2024-01-30T02:59:25;35.20;;;31.63;;
15295;SDS011;7749;49.964;7.890;2024-01-30T03:01:52;35.77;;;32.10;;
15295;SDS011;7749;49.964;7.890;2024-01-30T03:04:20;34.73;;;31.37;;
15295;SDS011;7749;49.964;7.890;2024-01-30T03:06:47;36.13;;;32.37;;
15295;SDS011;7749;49.964;7.890;2024-01-30T03:09:16;33.10;;;30.03;;
15295;SDS011;7749;49.964;7.890;2024-01-30T03:11:44;35.93;;;32.43;;
15295;SDS011;7749;49.964;7.890;2024-01-30T03:14:12;34.60;;;31.10;;
15295;SDS011;7749;49.964;7.890;2024-01-30T03:16:39;36.07;;;32.57;;
15295;SDS011;7749;49.964;7.890;2024-01-30T03:19:06;34.33;;;30.83;;
15295;SDS011;7749;49.964;7.890;2024-01-30T03:21:37;34.17;;;30.80;;
15295;SDS011;7749;49.964;7.890;2024-01-30T03:24:04;34.93;;;31.53;;
15295;SDS011;7749;49.964;7.890;2024-01-30T03:26:32;33.90;;;30.50;;
15295;SDS011;7749;49.964;7.890;2024-01-30T03:28:59;33.17;;;29.97;;
15295;SDS011;7749;49.964;7.890;2024-01-30T03:31:27;33.20;;;29.73;;
15295;SDS011;7749;49.964;7.890;2024-01-30T03:33:54;33.77;;;30.43;;
15295;SDS011;7749;49.964;7.890;2024-01-30T03:36:22;32.87;;;29.60;;
15295;SDS011;7749;49.964;7.890;2024-01-30T03:38:49;32.70;;;29.47;;
15295;SDS011;7749;49.964;7.890;2024-01-30T03:41:16;33.13;;;29.93;;
15295;SDS011;7749;49.964;7.890;2024-01-30T03:43:44;31.17;;;28.27;;
15295;SDS011;7749;49.964;7.890;2024-01-30T03:46:11;33.17;;;29.53;;
15295;SDS011;7749;49.964;7.890;2024-01-30T03:48:39;32.87;;;29.63;;
15295;SDS011;7749;49.964;7.890;2024-01-30T03:51:07;34.20;;;30.77;;
15295;SDS011;7749;49.964;7.890;2024-01-30T03:53:34;34.87;;;31.37;;
15295;SDS011;7749;49.964;7.890;2024-01-30T03:56:02;31.33;;;28.33;;
15295;SDS011;7749;49.964;7.890;2024-01-30T03:58:30;31.50;;;28.40;;
15295;SDS011;7749;49.964;7.890;2024-01-30T04:00:57;33.47;;;30.17;;
15295;SDS011;7749;49.964;7.890;2024-01-30T04:03:25;33.50;;;30.23;;
15295;SDS011;7749;49.964;7.890;2024-01-30T04:05:52;41.30;;;37.20;;
15295;SDS011;7749;49.964;7.890;2024-01-30T04:08:20;74.87;;;67.43;;
15295;SDS011;7749;49.964;7.890;2024-01-30T04:10:48;45.57;;;41.17;;
15295;SDS011;7749;49.964;7.890;2024-01-30T04:13:16;39.27;;;35.33;;
15295;SDS011;7749;49.964;7.890;2024-01-30T04:15:43;37.10;;;33.37;;
15295;SDS011;7749;49.964;7.890;2024-01-30T04:18:11;39.57;;;35.47;;
15295;SDS011;7749;49.964;7.890;2024-01-30T04:20:39;35.03;;;31.53;;
15295;SDS011;7749;49.964;7.890;2024-01-30T04:23:06;36.37;;;32.67;;
15295;SDS011;7749;49.964;7.890;2024-01-30T04:25:34;36.70;;;32.90;;
15295;SDS011;7749;49.964;7.890;2024-01-30T04:28:01;34.50;;;31.00;;
15295;SDS011;7749;49.964;7.890;2024-01-30T04:30:29;36.23;;;32.53;;
15295;SDS011;7749;49.964;7.890;2024-01-30T04:32:56;44.17;;;39.27;;
15295;SDS011;7749;49.964;7.890;2024-01-30T04:35:24;38.70;;;34.80;;
15295;SDS011;7749;49.964;7.890;2024-01-30T04:37:52;38.93;;;34.77;;
15295;SDS011;7749;49.964;7.890;2024-01-30T04:40:20;38.50;;;34.50;;
15295;SDS011;7749;49.964;7.890;2024-01-30T04:42:48;38.23;;;34.47;;
15295;SDS011;7749;49.964;7.890;2024-01-30T04:45:15;38.27;;;34.37;;
15295;SDS011;7749;49.964;7.890;2024-01-30T04:47:43;37.03;;;33.33;;
15295;SDS011;7749;49.964;7.890;2024-01-30T04:50:11;40.83;;;36.83;;
15295;SDS011;7749;49.964;7.890;2024-01-30T04:52:38;41.20;;;36.83;;
15295;SDS011;7749;49.964;7.890;2024-01-30T04:55:06;38.00;;;34.10;;
15295;SDS011;7749;49.964;7.890;2024-01-30T04:57:33;37.17;;;33.27;;
15295;SDS011;7749;49.964;7.890;2024-01-30T05:00:01;35.20;;;31.73;;
15295;SDS011;7749;49.964;7.890;2024-01-30T05:02:28;36.07;;;32.67;;
15295;SDS011;7749;49.964;7.890;2024-01-30T05:04:55;34.97;;;31.53;;
15295;SDS011;7749;49.964;7.890;2024-01-30T05:07:24;35.30;;;32.00;;
15295;SDS011;7749;49.964;7.890;2024-01-30T05:09:52;36.03;;;32.40;;
15295;SDS011;7749;49.964;7.890;2024-01-30T05:12:25;32.20;;;29.00;;
15295;SDS011;7749;49.964;7.890;2024-01-30T05:14:52;54.00;;;48.60;;
15295;SDS011;7749;49.964;7.890;2024-01-30T05:17:20;67.37;;;60.63;;
15295;SDS011;7749;49.964;7.890;2024-01-30T05:19:47;46.83;;;41.93;;
15295;SDS011;7749;49.964;7.890;2024-01-30T05:22:15;39.00;;;35.07;;
15295;SDS011;7749;49.964;7.890;2024-01-30T05:24:44;38.00;;;34.43;;
15295;SDS011;7749;49.964;7.890;2024-01-30T05:27:12;38.23;;;34.47;;
15295;SDS011;7749;49.964;7.890;2024-01-30T05:29:40;45.73;;;41.00;;
15295;SDS011;7749;49.964;7.890;2024-01-30T05:32:08;48.53;;;43.73;;
15295;SDS011;7749;49.964;7.890;2024-01-30T05:34:35;43.93;;;39.60;;
15295;SDS011;7749;49.964;7.890;2024-01-30T05:37:03;44.73;;;40.13;;
15295;SDS011;7749;49.964;7.890;2024-01-30T05:39:31;47.37;;;42.37;;
15295;SDS011;7749;49.964;7.890;2024-01-30T05:41:59;48.57;;;43.60;;
15295;SDS011;7749;49.964;7.890;2024-01-30T05:44:27;41.53;;;37.57;;
15295;SDS011;7749;49.964;7.890;2024-01-30T05:46:54;37.53;;;33.70;;
15295;SDS011;7749;49.964;7.890;2024-01-30T05:49:21;36.83;;;33.13;;
15295;SDS011;7749;49.964;7.890;2024-01-30T05:51:50;36.43;;;32.90;;
15295;SDS011;7749;49.964;7.890;2024-01-30T05:54:18;36.43;;;32.90;;
15295;SDS011;7749;49.964;7.890;2024-01-30T05:56:45;38.03;;;34.40;;
15295;SDS011;7749;49.964;7.890;2024-01-30T05:59:12;40.60;;;36.70;;
15295;SDS011;7749;49.964;7.890;2024-01-30T06:01:46;39.80;;;35.80;;
15295;SDS011;7749;49.964;7.890;2024-01-30T06:04:14;41.10;;;37.13;;
15295;SDS011;7749;49.964;7.890;2024-01-30T06:06:42;51.37;;;46.33;;
15295;SDS011;7749;49.964;7.890;2024-01-30T06:09:10;45.27;;;40.97;;
15295;SDS011;7749;49.964;7.890;2024-01-30T06:11:37;51.70;;;46.70;;
15295;SDS011;7749;49.964;7.890;2024-01-30T06:14:04;41.97;;;37.77;;
15295;SDS011;7749;49.964;7.890;2024-01-30T06:16:32;39.17;;;35.13;;
15295;SDS011;7749;49.964;7.890;2024-01-30T06:19:01;37.07;;;33.50;;
15295;SDS011;7749;49.964;7.890;2024-01-30T06:21:28;38.27;;;34.47;;
15295;SDS011;7749;49.964;7.890;2024-01-30T06:23:55;39.17;;;35.10;;
15295;SDS011;7749;49.964;7.890;2024-01-30T06:26:23;38.10;;;34.40;;
15295;SDS011;7749;49.964;7.890;2024-01-30T06:28:50;38.07;;;34.43;;
15295;SDS011;7749;49.964;7.890;2024-01-30T06:31:17;36.77;;;33.10;;
15295;SDS011;7749;49.964;7.890;2024-01-30T06:33:48;35.53;;;32.03;;
15295;SDS011;7749;49.964;7.890;2024-01-30T06:36:16;37.03;;;33.33;;
15295;SDS011;7749;49.964;7.890;2024-01-30T06:38:43;37.63;;;33.93;;
15295;SDS011;7749;49.964;7.890;2024-01-30T06:41:10;38.30;;;34.40;;
15295;SDS011;7749;49.964;7.890;2024-01-30T06:43:38;37.20;;;33.40;;
15295;SDS011;7749;49.964;7.890;2024-01-30T06:46:05;40.63;;;36.63;;
15295;SDS011;7749;49.964;7.890;2024-01-30T06:48:33;39.73;;;35.87;;
15295;SDS011;7749;49.964;7.890;2024-01-30T06:51:00;42.03;;;36.50;;
15295;SDS011;7749;49.964;7.890;2024-01-30T06:53:28;41.40;;;36.07;;
15295;SDS011;7749;49.964;7.890;2024-01-30T06:55:55;40.90;;;35.90;;
15295;SDS011;7749;49.964;7.890;2024-01-30T06:58:23;38.83;;;34.70;;
15295;SDS011;7749;49.964;7.890;2024-01-30T07:00:51;39.63;;;35.37;;
15295;SDS011;7749;49.964;7.890;2024-01-30T07:03:18;39.63;;;34.87;;
15295;SDS011;7749;49.964;7.890;2024-01-30T07:05:46;38.50;;;34.37;;
15295;SDS011;7749;49.964;7.890;2024-01-30T07:08:15;37.90;;;33.90;;
15295;SDS011;7749;49.964;7.890;2024-01-30T07:10:46;36.33;;;32.73;;
15295;SDS011;7749;49.964;7.890;2024-01-30T07:13:14;35.07;;;31.63;;
15295;SDS011;7749;49.964;7.890;2024-01-30T07:15:43;35.70;;;32.00;;
15295;SDS011;7749;49.964;7.890;2024-01-30T07:18:10;37.07;;;33.33;;
15295;SDS011;7749;49.964;7.890;2024-01-30T07:20:40;36.87;;;33.27;;
15295;SDS011;7749;49.964;7.890;2024-01-30T07:23:13;37.83;;;33.93;;
15295;SDS011;7749;49.964;7.890;2024-01-30T07:25:46;39.00;;;35.07;;
15295;SDS011;7749;49.964;7.890;2024-01-30T07:28:17;38.23;;;34.40;;
15295;SDS011;7749;49.964;7.890;2024-01-30T07:30:44;39.30;;;34.30;;
15295;SDS011;7749;49.964;7.890;2024-01-30T07:33:12;38.73;;;34.63;;
15295;SDS011;7749;49.964;7.890;2024-01-30T07:35:40;40.60;;;36.20;;
15295;SDS011;7749;49.964;7.890;2024-01-30T07:38:08;39.37;;;35.17;;
15295;SDS011;7749;49.964;7.890;2024-01-30T07:40:35;40.60;;;36.20;;
15295;SDS011;7749;49.964;7.890;2024-01-30T07:43:03;42.03;;;35.70;;
15295;SDS011;7749;49.964;7.890;2024-01-30T07:45:30;43.67;;;39.13;;
15295;SDS011;7749;49.964;7.890;2024-01-30T07:48:01;38.63;;;34.43;;
15295;SDS011;7749;49.964;7.890;2024-01-30T07:50:28;40.00;;;36.10;;
15295;SDS011;7749;49.964;7.890;2024-01-30T07:52:56;36.77;;;33.07;;
15295;SDS011;7749;49.964;7.890;2024-01-30T07:55:24;37.50;;;33.57;;
15295;SDS011;7749;49.964;7.890;2024-01-30T07:57:54;37.07;;;32.67;;
15295;SDS011;7749;49.964;7.890;2024-01-30T08:00:22;39.93;;;33.93;;
15295;SDS011;7749;49.964;7.890;2024-01-30T08:02:50;39.43;;;34.43;;
15295;SDS011;7749;49.964;7.890;2024-01-30T08:05:21;41.57;;;37.07;;
15295;SDS011;7749;49.964;7.890;2024-01-30T08:07:50;43.03;;;38.43;;
15295;SDS011;7749;49.964;7.890;2024-01-30T08:10:18;45.80;;;39.83;;
15295;SDS011;7749;49.964;7.890;2024-01-30T08:12:47;39.17;;;33.40;;
15295;SDS011;7749;49.964;7.890;2024-01-30T08:15:14;39.77;;;32.70;;
15295;SDS011;7749;49.964;7.890;2024-01-30T08:17:42;36.27;;;31.93;;
15295;SDS011;7749;49.964;7.890;2024-01-30T08:20:11;39.40;;;35.30;;
15295;SDS011;7749;49.964;7.890;2024-01-30T08:22:39;38.93;;;33.80;;
15295;SDS011;7749;49.964;7.890;2024-01-30T08:25:09;40.47;;;36.00;;
15295;SDS011;7749;49.964;7.890;2024-01-30T08:27:37;36.57;;;32.60;;
15295;SDS011;7749;49.964;7.890;2024-01-30T08:30:06;35.87;;;30.43;;
15295;SDS011;7749;49.964;7.890;2024-01-30T08:32:34;34.57;;;30.90;;
15295;SDS011;7749;49.964;7.890;2024-01-30T08:35:04;37.53;;;33.57;;
15295;SDS011;7749;49.964;7.890;2024-01-30T08:37:31;36.57;;;31.77;;
15295;SDS011;7749;49.964;7.890;2024-01-30T08:39:59;35.43;;;31.57;;
15295;SDS011;7749;49.964;7.890;2024-01-30T08:42:27;37.67;;;31.93;;
15295;SDS011;7749;49.964;7.890;2024-01-30T08:44:54;38.93;;;33.97;;
15295;SDS011;7749;49.964;7.890;2024-01-30T08:47:22;36.60;;;32.73;;
15295;SDS011;7749;49.964;7.890;2024-01-30T08:49:50;34.53;;;30.07;;
15295;SDS011;7749;49.964;7.890;2024-01-30T08:52:17;36.27;;;31.50;;
15295;SDS011;7749;49.964;7.890;2024-01-30T08:54:45;34.20;;;30.50;;
15295;SDS011;7749;49.964;7.890;2024-01-30T08:57:12;34.00;;;28.33;;
15295;SDS011;7749;49.964;7.890;2024-01-30T08:59:40;32.70;;;27.30;;
15295;SDS011;7749;49.964;7.890;2024-01-30T09:02:07;33.63;;;28.37;;
15295;SDS011;7749;49.964;7.890;2024-01-30T09:04:38;35.43;;;31.47;;
15295;SDS011;7749;49.964;7.890;2024-01-30T09:07:08;34.37;;;29.80;;
15295;SDS011;7749;49.964;7.890;2024-01-30T09:09:38;33.83;;;30.20;;
15295;SDS011;7749;49.964;7.890;2024-01-30T09:12:08;32.93;;;29.23;;
15295;SDS011;7749;49.964;7.890;2024-01-30T09:14:39;31.30;;;27.23;;
15295;SDS011;7749;49.964;7.890;2024-01-30T09:17:08;31.10;;;27.17;;
15295;SDS011;7749;49.964;7.890;2024-01-30T09:19:35;32.27;;;27.50;;
15295;SDS011;7749;49.964;7.890;2024-01-30T09:22:03;33.30;;;29.00;;
15295;SDS011;7749;49.964;7.890;2024-01-30T09:24:31;33.20;;;28.87;;
15295;SDS011;7749;49.964;7.890;2024-01-30T09:26:58;33.27;;;27.43;;
15295;SDS011;7749;49.964;7.890;2024-01-30T09:29:26;32.93;;;27.00;;
15295;SDS011;7749;49.964;7.890;2024-01-30T09:31:53;31.30;;;27.07;;
15295;SDS011;7749;49.964;7.890;2024-01-30T09:34:21;30.77;;;26.90;;
15295;SDS011;7749;49.964;7.890;2024-01-30T09:36:48;29.30;;;25.97;;
15295;SDS011;7749;49.964;7.890;2024-01-30T09:39:16;29.53;;;26.40;;
15295;SDS011;7749;49.964;7.890;2024-01-30T09:41:45;30.37;;;25.50;;
15295;SDS011;7749;49.964;7.890;2024-01-30T09:44:16;31.87;;;26.63;;
15295;SDS011;7749;49.964;7.890;2024-01-30T09:46:45;30.07;;;26.87;;
15295;SDS011;7749;49.964;7.890;2024-01-30T09:49:15;28.83;;;25.57;;
15295;SDS011;7749;49.964;7.890;2024-01-30T09:51:47;29.30;;;26.17;;
15295;SDS011;7749;49.964;7.890;2024-01-30T09:54:16;29.97;;;26.37;;
15295;SDS011;7749;49.964;7.890;2024-01-30T09:56:44;31.73;;;26.80;;
15295;SDS011;7749;49.964;7.890;2024-01-30T09:59:12;28.63;;;25.53;;
15295;SDS011;7749;49.964;7.890;2024-01-30T10:01:39;30.20;;;26.10;;
15295;SDS011;7749;49.964;7.890;2024-01-30T10:04:08;32.53;;;26.07;;
15295;SDS011;7749;49.964;7.890;2024-01-30T10:06:35;28.83;;;25.77;;
15295;SDS011;7749;49.964;7.890;2024-01-30T10:09:04;27.60;;;24.40;;
15295;SDS011;7749;49.964;7.890;2024-01-30T10:11:31;27.37;;;24.03;;
15295;SDS011;7749;49.964;7.890;2024-01-30T10:13:59;28.33;;;24.53;;
15295;SDS011;7749;49.964;7.890;2024-01-30T10:16:27;25.53;;;22.00;;
15295;SDS011;7749;49.964;7.890;2024-01-30T10:18:55;25.50;;;21.87;;
15295;SDS011;7749;49.964;7.890;2024-01-30T10:21:22;26.03;;;23.33;;
15295;SDS011;7749;49.964;7.890;2024-01-30T10:23:50;27.30;;;23.43;;
15295;SDS011;7749;49.964;7.890;2024-01-30T10:26:17;25.83;;;22.70;;
15295;SDS011;7749;49.964;7.890;2024-01-30T10:28:45;26.67;;;22.47;;
15295;SDS011;7749;49.964;7.890;2024-01-30T10:31:16;25.60;;;22.53;;
15295;SDS011;7749;49.964;7.890;2024-01-30T10:33:44;27.07;;;23.43;;
15295;SDS011;7749;49.964;7.890;2024-01-30T10:36:15;29.77;;;22.93;;
15295;SDS011;7749;49.964;7.890;2024-01-30T10:38:47;25.57;;;22.70;;
15295;SDS011;7749;49.964;7.890;2024-01-30T10:41:19;26.97;;;21.77;;
15295;SDS011;7749;49.964;7.890;2024-01-30T10:44:02;25.47;;;22.53;;
15295;SDS011;7749;49.964;7.890;2024-01-30T10:46:36;28.37;;;22.70;;
15295;SDS011;7749;49.964;7.890;2024-01-30T10:49:05;26.73;;;22.77;;
15295;SDS011;7749;49.964;7.890;2024-01-30T10:51:33;33.63;;;26.57;;
15295;SDS011;7749;49.964;7.890;2024-01-30T10:54:02;29.07;;;22.53;;
15295;SDS011;7749;49.964;7.890;2024-01-30T10:56:32;25.13;;;20.30;;
15295;SDS011;7749;49.964;7.890;2024-01-30T10:59:02;24.13;;;20.00;;
15295;SDS011;7749;49.964;7.890;2024-01-30T11:01:30;24.13;;;20.50;;
15295;SDS011;7749;49.964;7.890;2024-01-30T11:03:58;22.47;;;19.57;;
15295;SDS011;7749;49.964;7.890;2024-01-30T11:06:26;23.43;;;19.20;;
15295;SDS011;7749;49.964;7.890;2024-01-30T11:09:02;19.20;;;16.77;;
15295;SDS011;7749;49.964;7.890;2024-01-30T11:14:28;21.53;;;18.10;;
15295;SDS011;7749;49.964;7.890;2024-01-30T11:16:57;20.60;;;17.07;;
15295;SDS011;7749;49.964;7.890;2024-01-30T11:19:26;18.83;;;16.83;;
15295;SDS011;7749;49.964;7.890;2024-01-30T11:21:55;18.57;;;16.03;;
15295;SDS011;7749;49.964;7.890;2024-01-30T11:24:24;17.63;;;15.73;;
15295;SDS011;7749;49.964;7.890;2024-01-30T11:26:56;17.53;;;15.03;;
15295;SDS011;7749;49.964;7.890;2024-01-30T11:29:28;17.87;;;15.70;;
15295;SDS011;7749;49.964;7.890;2024-01-30T11:31:56;18.10;;;15.43;;
15295;SDS011;7749;49.964;7.890;2024-01-30T11:34:25;19.53;;;16.23;;
15295;SDS011;7749;49.964;7.890;2024-01-30T11:36:56;19.23;;;16.50;;
15295;SDS011;7749;49.964;7.890;2024-01-30T11:39:36;19.60;;;17.23;;
15295;SDS011;7749;49.964;7.890;2024-01-30T11:42:04;22.07;;;17.00;;
15295;SDS011;7749;49.964;7.890;2024-01-30T11:44:35;17.70;;;15.87;;
15295;SDS011;7749;49.964;7.890;2024-01-30T11:47:03;18.73;;;16.83;;
15295;SDS011;7749;49.964;7.890;2024-01-30T11:49:30;21.47;;;16.67;;
15295;SDS011;7749;49.964;7.890;2024-01-30T11:51:58;18.53;;;16.57;;
15295;SDS011;7749;49.964;7.890;2024-01-30T11:54:26;18.37;;;16.43;;
15295;SDS011;7749;49.964;7.890;2024-01-30T11:56:53;19.97;;;16.80;;
15295;SDS011;7749;49.964;7.890;2024-01-30T11:59:21;18.30;;;16.07;;
15295;SDS011;7749;49.964;7.890;2024-01-30T12:01:48;22.50;;;17.33;;
15295;SDS011;7749;49.964;7.890;2024-01-30T12:04:16;19.40;;;17.23;;
15295;SDS011;7749;49.964;7.890;2024-01-30T12:06:44;20.70;;;17.83;;
15295;SDS011;7749;49.964;7.890;2024-01-30T12:09:11;19.90;;;17.53;;
15295;SDS011;7749;49.964;7.890;2024-01-30T12:11:46;20.87;;;17.17;;
15295;SDS011;7749;49.964;7.890;2024-01-30T12:14:14;24.27;;;18.00;;
15295;SDS011;7749;49.964;7.890;2024-01-30T12:16:43;19.60;;;17.50;;
15295;SDS011;7749;49.964;7.890;2024-01-30T12:19:21;21.03;;;18.40;;
15295;SDS011;7749;49.964;7.890;2024-01-30T12:21:56;21.83;;;18.13;;
15295;SDS011;7749;49.964;7.890;2024-01-30T12:24:29;21.57;;;17.47;;
15295;SDS011;7749;49.964;7.890;2024-01-30T12:26:59;19.27;;;16.47;;
15295;SDS011;7749;49.964;7.890;2024-01-30T12:29:27;21.40;;;18.67;;
15295;SDS011;7749;49.964;7.890;2024-01-30T12:32:03;22.40;;;19.03;;
15295;SDS011;7749;49.964;7.890;2024-01-30T12:34:30;21.47;;;18.77;;
15295;SDS011;7749;49.964;7.890;2024-01-30T12:37:04;23.33;;;18.40;;
15295;SDS011;7749;49.964;7.890;2024-01-30T12:39:33;21.03;;;18.67;;
15295;SDS011;7749;49.964;7.890;2024-01-30T12:42:02;21.07;;;16.97;;
15295;SDS011;7749;49.964;7.890;2024-01-30T12:44:30;22.37;;;18.27;;
15295;SDS011;7749;49.964;7.890;2024-01-30T12:46:57;20.03;;;17.93;;
15295;SDS011;7749;49.964;7.890;2024-01-30T12:49:25;18.53;;;16.43;;
15295;SDS011;7749;49.964;7.890;2024-01-30T12:51:52;20.07;;;16.60;;
15295;SDS011;7749;49.964;7.890;2024-01-30T12:54:19;19.30;;;17.23;;
15295;SDS011;7749;49.964;7.890;2024-01-30T12:56:47;19.90;;;16.23;;
15295;SDS011;7749;49.964;7.890;2024-01-30T12:59:14;23.93;;;16.23;;
15295;SDS011;7749;49.964;7.890;2024-01-30T13:01:42;22.03;;;17.00;;
15295;SDS011;7749;49.964;7.890;2024-01-30T13:04:10;19.27;;;17.10;;
15295;SDS011;7749;49.964;7.890;2024-01-30T13:06:38;18.13;;;15.53;;
15295;SDS011;7749;49.964;7.890;2024-01-30T13:09:06;18.73;;;16.73;;
15295;SDS011;7749;49.964;7.890;2024-01-30T13:11:33;21.13;;;16.43;;
15295;SDS011;7749;49.964;7.890;2024-01-30T13:14:01;20.07;;;17.20;;
15295;SDS011;7749;49.964;7.890;2024-01-30T13:16:28;18.67;;;16.70;;
15295;SDS011;7749;49.964;7.890;2024-01-30T13:18:56;17.90;;;15.60;;
15295;SDS011;7749;49.964;7.890;2024-01-30T13:21:23;19.53;;;16.47;;
15295;SDS011;7749;49.964;7.890;2024-01-30T13:23:51;17.70;;;15.90;;
15295;SDS011;7749;49.964;7.890;2024-01-30T13:26:21;24.70;;;18.67;;
15295;SDS011;7749;49.964;7.890;2024-01-30T13:28:48;24.37;;;19.10;;
15295;SDS011;7749;49.964;7.890;2024-01-30T13:31:16;19.47;;;17.43;;
15295;SDS011;7749;49.964;7.890;2024-01-30T13:33:44;25.20;;;17.93;;
15295;SDS011;7749;49.964;7.890;2024-01-30T13:36:11;19.97;;;17.67;;
15295;SDS011;7749;49.964;7.890;2024-01-30T13:38:39;21.13;;;17.43;;
15295;SDS011;7749;49.964;7.890;2024-01-30T13:41:07;21.43;;;17.97;;
15295;SDS011;7749;49.964;7.890;2024-01-30T13:43:34;20.37;;;16.50;;
15295;SDS011;7749;49.964;7.890;2024-01-30T13:46:01;19.83;;;17.23;;
15295;SDS011;7749;49.964;7.890;2024-01-30T13:48:30;18.97;;;16.87;;
15295;SDS011;7749;49.964;7.890;2024-01-30T13:50:58;21.83;;;17.63;;
15295;SDS011;7749;49.964;7.890;2024-01-30T13:53:26;20.23;;;16.47;;
15295;SDS011;7749;49.964;7.890;2024-01-30T13:55:54;18.60;;;16.27;;
15295;SDS011;7749;49.964;7.890;2024-01-30T13:58:22;19.43;;;15.67;;
15295;SDS011;7749;49.964;7.890;2024-01-30T14:00:49;24.73;;;16.97;;
15295;SDS011;7749;49.964;7.890;2024-01-30T14:03:17;17.23;;;15.43;;
15295;SDS011;7749;49.964;7.890;2024-01-30T14:05:44;17.93;;;15.80;;
15295;SDS011;7749;49.964;7.890;2024-01-30T14:08:12;21.43;;;16.23;;
15295;SDS011;7749;49.964;7.890;2024-01-30T14:10:39;18.00;;;14.73;;
15295;SDS011;7749;49.964;7.890;2024-01-30T14:13:07;19.37;;;15.63;;
15295;SDS011;7749;49.964;7.890;2024-01-30T14:15:34;18.93;;;16.93;;
15295;SDS011;7749;49.964;7.890;2024-01-30T14:18:01;20.00;;;16.60;;
15295;SDS011;7749;49.964;7.890;2024-01-30T14:20:29;20.30;;;17.33;;
15295;SDS011;7749;49.964;7.890;2024-01-30T14:22:57;20.63;;;17.03;;
15295;SDS011;7749;49.964;7.890;2024-01-30T14:25:25;19.60;;;16.47;;
15295;SDS011;7749;49.964;7.890;2024-01-30T14:27:53;18.33;;;16.43;;
15295;SDS011;7749;49.964;7.890;2024-01-30T14:30:20;18.87;;;16.43;;
15295;SDS011;7749;49.964;7.890;2024-01-30T14:32:48;21.53;;;17.10;;
15295;SDS011;7749;49.964;7.890;2024-01-30T14:35:16;22.70;;;20.03;;
15295;SDS011;7749;49.964;7.890;2024-01-30T14:37:44;22.40;;;18.13;;
15295;SDS011;7749;49.964;7.890;2024-01-30T14:40:11;21.80;;;18.73;;
15295;SDS011;7749;49.964;7.890;2024-01-30T14:42:38;19.70;;;17.53;;